sensor_id;sensor_type;location;lat;lon;timestamp;temperature;humidity
68128;SHT30;54931;52.098;21.006;2023-07-31T00:00:44;17.95;72.99
68128;SHT30;54931;52.098;21.006;2023-07-31T00:03:25;17.92;72.94
68128;SHT30;54931;52.098;21.006;2023-07-31T00:05:53;17.89;72.98
68128;SHT30;54931;52.098;21.006;2023-07-31T00:08:20;17.85;73.00
68128;SHT30;54931;52.098;21.006;2023-07-31T00:10:50;17.81;73.07
68128;SHT30;54931;52.098;21.006;2023-07-31T00:13:19;17.77;73.20
68128;SHT30;54931;52.098;21.006;2023-07-31T00:15:46;17.72;73.29
68128;SHT30;54931;52.098;21.006;2023-07-31T00:18:14;17.69;73.40
68128;SHT30;54931;52.098;21.006;2023-07-31T00:20:42;17.64;73.45
68128;SHT30;54931;52.098;21.006;2023-07-31T00:23:09;17.60;73.63
68128;SHT30;54931;52.098;21.006;2023-07-31T00:25:37;17.58;73.70
68128;SHT30;54931;52.098;21.006;2023-07-31T00:28:04;17.55;73.78
68128;SHT30;54931;52.098;21.006;2023-07-31T00:30:32;17.52;73.81
68128;SHT30;54931;52.098;21.006;2023-07-31T00:32:59;17.49;73.91
68128;SHT30;54931;52.098;21.006;2023-07-31T00:35:26;17.45;74.02
68128;SHT30;54931;52.098;21.006;2023-07-31T00:37:53;17.42;74.15
68128;SHT30;54931;52.098;21.006;2023-07-31T00:40:21;17.40;74.12
68128;SHT30;54931;52.098;21.006;2023-07-31T00:42:48;17.37;74.22
68128;SHT30;54931;52.098;21.006;2023-07-31T00:45:16;17.34;74.30
68128;SHT30;54931;52.098;21.006;2023-07-31T00:47:43;17.32;74.39
68128;SHT30;54931;52.098;21.006;2023-07-31T00:50:11;17.30;74.44
68128;SHT30;54931;52.098;21.006;2023-07-31T00:52:39;17.26;74.50
68128;SHT30;54931;52.098;21.006;2023-07-31T00:55:07;17.24;74.60
68128;SHT30;54931;52.098;21.006;2023-07-31T00:57:36;17.21;74.72
68128;SHT30;54931;52.098;21.006;2023-07-31T01:00:06;17.19;74.84
68128;SHT30;54931;52.098;21.006;2023-07-31T01:02:37;17.17;74.94
68128;SHT30;54931;52.098;21.006;2023-07-31T01:05:05;17.16;75.10
68128;SHT30;54931;52.098;21.006;2023-07-31T01:08:21;17.15;75.28
68128;SHT30;54931;52.098;21.006;2023-07-31T01:10:46;17.12;75.29
68128;SHT30;54931;52.098;21.006;2023-07-31T01:13:23;17.10;75.36
68128;SHT30;54931;52.098;21.006;2023-07-31T01:15:50;17.09;75.45
68128;SHT30;54931;52.098;21.006;2023-07-31T01:18:18;17.07;75.53
68128;SHT30;54931;52.098;21.006;2023-07-31T01:20:46;17.07;75.68
68128;SHT30;54931;52.098;21.006;2023-07-31T01:26:30;17.05;75.81
68128;SHT30;54931;52.098;21.006;2023-07-31T01:31:40;17.04;75.90
68128;SHT30;54931;52.098;21.006;2023-07-31T01:34:10;17.00;75.98
68128;SHT30;54931;52.098;21.006;2023-07-31T01:36:40;16.96;76.07
68128;SHT30;54931;52.098;21.006;2023-07-31T01:39:07;16.91;76.26
68128;SHT30;54931;52.098;21.006;2023-07-31T01:41:35;16.86;76.41
68128;SHT30;54931;52.098;21.006;2023-07-31T01:44:02;16.79;76.50
68128;SHT30;54931;52.098;21.006;2023-07-31T01:46:29;16.73;76.68
68128;SHT30;54931;52.098;21.006;2023-07-31T01:48:57;16.68;76.76
68128;SHT30;54931;52.098;21.006;2023-07-31T01:51:24;16.64;76.85
68128;SHT30;54931;52.098;21.006;2023-07-31T01:53:52;16.58;76.96
68128;SHT30;54931;52.098;21.006;2023-07-31T01:56:19;16.52;77.11
68128;SHT30;54931;52.098;21.006;2023-07-31T01:58:47;16.48;77.31
68128;SHT30;54931;52.098;21.006;2023-07-31T02:01:14;16.44;77.44
68128;SHT30;54931;52.098;21.006;2023-07-31T02:03:41;16.41;77.58
68128;SHT30;54931;52.098;21.006;2023-07-31T02:06:09;16.37;77.68
68128;SHT30;54931;52.098;21.006;2023-07-31T02:08:37;16.33;77.82
68128;SHT30;54931;52.098;21.006;2023-07-31T02:11:04;16.31;78.01
68128;SHT30;54931;52.098;21.006;2023-07-31T02:13:33;16.30;78.13
68128;SHT30;54931;52.098;21.006;2023-07-31T02:16:00;16.28;78.17
68128;SHT30;54931;52.098;21.006;2023-07-31T02:18:28;16.25;78.22
68128;SHT30;54931;52.098;21.006;2023-07-31T02:20:55;16.23;78.36
68128;SHT30;54931;52.098;21.006;2023-07-31T02:23:23;16.22;78.42
68128;SHT30;54931;52.098;21.006;2023-07-31T02:25:50;16.20;78.53
68128;SHT30;54931;52.098;21.006;2023-07-31T02:28:17;16.17;78.60
68128;SHT30;54931;52.098;21.006;2023-07-31T02:30:45;16.15;78.70
68128;SHT30;54931;52.098;21.006;2023-07-31T02:33:15;16.13;78.86
68128;SHT30;54931;52.098;21.006;2023-07-31T02:35:43;16.11;78.95
68128;SHT30;54931;52.098;21.006;2023-07-31T02:38:10;16.10;79.19
68128;SHT30;54931;52.098;21.006;2023-07-31T02:40:38;16.12;79.36
68128;SHT30;54931;52.098;21.006;2023-07-31T02:43:08;16.15;79.62
68128;SHT30;54931;52.098;21.006;2023-07-31T02:45:36;16.22;79.70
68128;SHT30;54931;52.098;21.006;2023-07-31T02:48:03;16.28;79.84
68128;SHT30;54931;52.098;21.006;2023-07-31T02:50:30;16.38;79.90
68128;SHT30;54931;52.098;21.006;2023-07-31T02:52:58;16.49;79.90
68128;SHT30;54931;52.098;21.006;2023-07-31T02:55:26;16.58;79.59
68128;SHT30;54931;52.098;21.006;2023-07-31T02:57:53;16.66;79.54
68128;SHT30;54931;52.098;21.006;2023-07-31T03:00:20;16.77;79.33
68128;SHT30;54931;52.098;21.006;2023-07-31T03:02:47;16.87;79.06
68128;SHT30;54931;52.098;21.006;2023-07-31T03:05:15;16.98;78.86
68128;SHT30;54931;52.098;21.006;2023-07-31T03:07:42;17.06;78.53
68128;SHT30;54931;52.098;21.006;2023-07-31T03:10:09;17.14;78.21
68128;SHT30;54931;52.098;21.006;2023-07-31T03:12:37;17.20;77.94
68128;SHT30;54931;52.098;21.006;2023-07-31T03:15:05;17.25;77.73
68128;SHT30;54931;52.098;21.006;2023-07-31T03:17:33;17.30;77.55
68128;SHT30;54931;52.098;21.006;2023-07-31T03:20:00;17.34;77.38
68128;SHT30;54931;52.098;21.006;2023-07-31T03:22:27;17.37;77.22
68128;SHT30;54931;52.098;21.006;2023-07-31T03:24:54;17.41;77.15
68128;SHT30;54931;52.098;21.006;2023-07-31T03:27:22;17.44;77.06
68128;SHT30;54931;52.098;21.006;2023-07-31T03:29:49;17.48;77.02
68128;SHT30;54931;52.098;21.006;2023-07-31T03:32:18;17.50;76.93
68128;SHT30;54931;52.098;21.006;2023-07-31T03:34:46;17.54;76.83
68128;SHT30;54931;52.098;21.006;2023-07-31T03:37:14;17.57;76.74
68128;SHT30;54931;52.098;21.006;2023-07-31T03:39:41;17.60;76.62
68128;SHT30;54931;52.098;21.006;2023-07-31T03:42:08;17.62;76.53
68128;SHT30;54931;52.098;21.006;2023-07-31T03:44:36;17.66;76.41
68128;SHT30;54931;52.098;21.006;2023-07-31T03:47:04;17.69;76.26
68128;SHT30;54931;52.098;21.006;2023-07-31T03:49:32;17.73;76.12
68128;SHT30;54931;52.098;21.006;2023-07-31T03:51:59;17.76;76.00
68128;SHT30;54931;52.098;21.006;2023-07-31T03:54:27;17.80;75.90
68128;SHT30;54931;52.098;21.006;2023-07-31T03:56:54;17.82;75.78
68128;SHT30;54931;52.098;21.006;2023-07-31T03:59:22;17.85;75.66
68128;SHT30;54931;52.098;21.006;2023-07-31T04:01:49;17.88;75.58
68128;SHT30;54931;52.098;21.006;2023-07-31T04:04:16;17.90;75.51
68128;SHT30;54931;52.098;21.006;2023-07-31T04:06:44;17.93;75.35
68128;SHT30;54931;52.098;21.006;2023-07-31T04:09:11;17.96;75.23
68128;SHT30;54931;52.098;21.006;2023-07-31T04:11:38;17.99;75.17
68128;SHT30;54931;52.098;21.006;2023-07-31T04:14:06;18.00;75.01
68128;SHT30;54931;52.098;21.006;2023-07-31T04:16:34;18.02;74.81
68128;SHT30;54931;52.098;21.006;2023-07-31T04:19:01;18.04;74.80
68128;SHT30;54931;52.098;21.006;2023-07-31T04:21:30;18.05;74.63
68128;SHT30;54931;52.098;21.006;2023-07-31T04:23:58;18.06;74.49
68128;SHT30;54931;52.098;21.006;2023-07-31T04:26:25;18.08;74.43
68128;SHT30;54931;52.098;21.006;2023-07-31T04:28:54;18.09;74.28
68128;SHT30;54931;52.098;21.006;2023-07-31T04:31:21;18.11;74.20
68128;SHT30;54931;52.098;21.006;2023-07-31T04:33:49;18.12;74.01
68128;SHT30;54931;52.098;21.006;2023-07-31T04:36:16;18.14;73.73
68128;SHT30;54931;52.098;21.006;2023-07-31T04:38:44;18.13;73.56
68128;SHT30;54931;52.098;21.006;2023-07-31T04:41:11;18.13;73.48
68128;SHT30;54931;52.098;21.006;2023-07-31T04:43:38;18.13;73.44
68128;SHT30;54931;52.098;21.006;2023-07-31T04:46:06;18.14;73.30
68128;SHT30;54931;52.098;21.006;2023-07-31T04:48:35;18.13;73.28
68128;SHT30;54931;52.098;21.006;2023-07-31T04:51:02;18.13;73.27
68128;SHT30;54931;52.098;21.006;2023-07-31T04:53:30;18.13;73.26
68128;SHT30;54931;52.098;21.006;2023-07-31T04:55:57;18.13;73.17
68128;SHT30;54931;52.098;21.006;2023-07-31T04:58:24;18.14;73.19
68128;SHT30;54931;52.098;21.006;2023-07-31T05:00:51;18.15;73.16
68128;SHT30;54931;52.098;21.006;2023-07-31T05:03:19;18.15;73.16
68128;SHT30;54931;52.098;21.006;2023-07-31T05:05:46;18.17;73.13
68128;SHT30;54931;52.098;21.006;2023-07-31T05:08:14;18.18;73.03
68128;SHT30;54931;52.098;21.006;2023-07-31T05:10:45;18.21;73.03
68128;SHT30;54931;52.098;21.006;2023-07-31T05:13:14;18.23;73.03
68128;SHT30;54931;52.098;21.006;2023-07-31T05:15:42;18.27;72.91
68128;SHT30;54931;52.098;21.006;2023-07-31T05:18:09;18.33;72.89
68128;SHT30;54931;52.098;21.006;2023-07-31T05:20:37;18.39;72.89
68128;SHT30;54931;52.098;21.006;2023-07-31T05:23:04;18.48;72.49
68128;SHT30;54931;52.098;21.006;2023-07-31T05:25:31;18.56;72.32
68128;SHT30;54931;52.098;21.006;2023-07-31T05:27:59;18.63;71.92
68128;SHT30;54931;52.098;21.006;2023-07-31T05:30:26;18.70;71.68
68128;SHT30;54931;52.098;21.006;2023-07-31T05:32:53;18.75;71.68
68128;SHT30;54931;52.098;21.006;2023-07-31T05:35:20;18.82;71.51
68128;SHT30;54931;52.098;21.006;2023-07-31T05:37:48;18.89;71.23
68128;SHT30;54931;52.098;21.006;2023-07-31T05:40:15;18.91;70.88
68128;SHT30;54931;52.098;21.006;2023-07-31T05:42:42;18.92;70.85
68128;SHT30;54931;52.098;21.006;2023-07-31T05:45:10;18.91;70.76
68128;SHT30;54931;52.098;21.006;2023-07-31T05:47:37;18.91;70.80
68128;SHT30;54931;52.098;21.006;2023-07-31T05:50:05;18.92;70.75
68128;SHT30;54931;52.098;21.006;2023-07-31T05:52:32;18.92;70.64
68128;SHT30;54931;52.098;21.006;2023-07-31T05:55:00;18.94;70.81
68128;SHT30;54931;52.098;21.006;2023-07-31T05:57:28;18.99;70.64
68128;SHT30;54931;52.098;21.006;2023-07-31T05:59:55;19.03;70.28
68128;SHT30;54931;52.098;21.006;2023-07-31T06:02:22;19.04;70.12
68128;SHT30;54931;52.098;21.006;2023-07-31T06:04:51;19.03;69.92
68128;SHT30;54931;52.098;21.006;2023-07-31T06:07:18;19.04;70.08
68128;SHT30;54931;52.098;21.006;2023-07-31T06:09:46;19.05;70.00
68128;SHT30;54931;52.098;21.006;2023-07-31T06:12:13;19.06;70.13
68128;SHT30;54931;52.098;21.006;2023-07-31T06:14:41;19.05;70.09
68128;SHT30;54931;52.098;21.006;2023-07-31T06:17:08;19.04;70.38
68128;SHT30;54931;52.098;21.006;2023-07-31T06:19:36;19.05;70.80
68128;SHT30;54931;52.098;21.006;2023-07-31T06:22:03;18.98;71.25
68128;SHT30;54931;52.098;21.006;2023-07-31T06:24:32;18.88;71.71
68128;SHT30;54931;52.098;21.006;2023-07-31T06:26:59;18.83;72.25
68128;SHT30;54931;52.098;21.006;2023-07-31T06:29:29;18.79;72.64
68128;SHT30;54931;52.098;21.006;2023-07-31T06:31:57;18.74;72.70
68128;SHT30;54931;52.098;21.006;2023-07-31T06:34:25;18.70;73.00
68128;SHT30;54931;52.098;21.006;2023-07-31T06:36:52;18.70;73.27
68128;SHT30;54931;52.098;21.006;2023-07-31T06:39:19;18.70;73.44
68128;SHT30;54931;52.098;21.006;2023-07-31T06:41:47;18.69;73.45
68128;SHT30;54931;52.098;21.006;2023-07-31T06:44:14;18.71;73.50
68128;SHT30;54931;52.098;21.006;2023-07-31T06:46:42;18.75;73.35
68128;SHT30;54931;52.098;21.006;2023-07-31T06:49:09;18.80;73.26
68128;SHT30;54931;52.098;21.006;2023-07-31T06:51:37;18.86;72.91
68128;SHT30;54931;52.098;21.006;2023-07-31T06:54:05;18.86;72.70
68128;SHT30;54931;52.098;21.006;2023-07-31T06:56:35;18.87;72.64
68128;SHT30;54931;52.098;21.006;2023-07-31T06:59:03;18.91;72.63
68128;SHT30;54931;52.098;21.006;2023-07-31T07:01:30;18.95;72.41
68128;SHT30;54931;52.098;21.006;2023-07-31T07:03:57;18.99;72.24
68128;SHT30;54931;52.098;21.006;2023-07-31T07:06:25;19.10;72.18
68128;SHT30;54931;52.098;21.006;2023-07-31T07:08:52;19.22;71.61
68128;SHT30;54931;52.098;21.006;2023-07-31T07:11:20;19.38;71.77
68128;SHT30;54931;52.098;21.006;2023-07-31T07:13:47;19.58;71.38
68128;SHT30;54931;52.098;21.006;2023-07-31T07:16:14;19.77;69.98
68128;SHT30;54931;52.098;21.006;2023-07-31T07:18:42;20.01;69.57
68128;SHT30;54931;52.098;21.006;2023-07-31T07:21:09;20.27;68.69
68128;SHT30;54931;52.098;21.006;2023-07-31T07:23:42;20.52;68.22
68128;SHT30;54931;52.098;21.006;2023-07-31T07:26:09;20.76;67.50
68128;SHT30;54931;52.098;21.006;2023-07-31T07:28:37;20.91;67.04
68128;SHT30;54931;52.098;21.006;2023-07-31T07:31:04;21.01;66.51
68128;SHT30;54931;52.098;21.006;2023-07-31T07:33:32;21.29;66.31
68128;SHT30;54931;52.098;21.006;2023-07-31T07:36:00;21.55;64.51
68128;SHT30;54931;52.098;21.006;2023-07-31T07:38:29;21.89;64.02
68128;SHT30;54931;52.098;21.006;2023-07-31T07:40:56;22.46;64.10
68128;SHT30;54931;52.098;21.006;2023-07-31T07:43:24;22.85;63.00
68128;SHT30;54931;52.098;21.006;2023-07-31T07:45:51;22.96;61.19
68128;SHT30;54931;52.098;21.006;2023-07-31T07:48:20;22.96;60.98
68128;SHT30;54931;52.098;21.006;2023-07-31T07:50:48;22.93;60.51
68128;SHT30;54931;52.098;21.006;2023-07-31T07:53:16;22.83;60.08
68128;SHT30;54931;52.098;21.006;2023-07-31T07:55:43;22.75;60.51
68128;SHT30;54931;52.098;21.006;2023-07-31T07:58:11;22.72;60.11
68128;SHT30;54931;52.098;21.006;2023-07-31T08:00:38;22.86;60.28
68128;SHT30;54931;52.098;21.006;2023-07-31T08:03:06;23.13;58.90
68128;SHT30;54931;52.098;21.006;2023-07-31T08:05:34;23.28;58.54
68128;SHT30;54931;52.098;21.006;2023-07-31T08:08:02;23.35;58.40
68128;SHT30;54931;52.098;21.006;2023-07-31T08:10:29;23.33;57.72
68128;SHT30;54931;52.098;21.006;2023-07-31T08:12:57;23.28;57.35
68128;SHT30;54931;52.098;21.006;2023-07-31T08:15:25;23.32;57.47
68128;SHT30;54931;52.098;21.006;2023-07-31T08:17:52;23.45;57.43
68128;SHT30;54931;52.098;21.006;2023-07-31T08:20:20;23.59;57.20
68128;SHT30;54931;52.098;21.006;2023-07-31T08:22:48;23.71;57.02
68128;SHT30;54931;52.098;21.006;2023-07-31T08:25:16;23.96;57.26
68128;SHT30;54931;52.098;21.006;2023-07-31T08:27:44;24.35;55.55
68128;SHT30;54931;52.098;21.006;2023-07-31T08:30:12;24.50;53.19
68128;SHT30;54931;52.098;21.006;2023-07-31T08:32:39;24.72;54.37
68128;SHT30;54931;52.098;21.006;2023-07-31T08:35:07;25.09;54.11
68128;SHT30;54931;52.098;21.006;2023-07-31T08:37:35;25.53;53.28
68128;SHT30;54931;52.098;21.006;2023-07-31T08:40:03;25.94;51.88
68128;SHT30;54931;52.098;21.006;2023-07-31T08:42:32;26.21;50.27
68128;SHT30;54931;52.098;21.006;2023-07-31T08:44:59;26.38;48.58
68128;SHT30;54931;52.098;21.006;2023-07-31T08:47:31;26.34;47.25
68128;SHT30;54931;52.098;21.006;2023-07-31T08:49:59;26.19;47.11
68128;SHT30;54931;52.098;21.006;2023-07-31T08:52:29;26.23;48.07
68128;SHT30;54931;52.098;21.006;2023-07-31T08:54:56;26.46;48.08
68128;SHT30;54931;52.098;21.006;2023-07-31T08:57:25;26.69;47.12
68128;SHT30;54931;52.098;21.006;2023-07-31T08:59:52;26.85;46.64
68128;SHT30;54931;52.098;21.006;2023-07-31T09:02:20;27.01;46.45
68128;SHT30;54931;52.098;21.006;2023-07-31T09:04:50;27.13;45.63
68128;SHT30;54931;52.098;21.006;2023-07-31T09:07:18;27.12;45.31
68128;SHT30;54931;52.098;21.006;2023-07-31T09:09:46;27.23;45.65
68128;SHT30;54931;52.098;21.006;2023-07-31T09:12:13;27.38;45.79
68128;SHT30;54931;52.098;21.006;2023-07-31T09:14:42;27.68;44.32
68128;SHT30;54931;52.098;21.006;2023-07-31T09:17:12;27.75;43.01
68128;SHT30;54931;52.098;21.006;2023-07-31T09:19:45;27.74;42.62
68128;SHT30;54931;52.098;21.006;2023-07-31T09:22:13;27.59;42.94
68128;SHT30;54931;52.098;21.006;2023-07-31T09:24:42;27.57;43.19
68128;SHT30;54931;52.098;21.006;2023-07-31T09:27:09;27.65;43.63
68128;SHT30;54931;52.098;21.006;2023-07-31T09:29:37;27.72;43.45
68128;SHT30;54931;52.098;21.006;2023-07-31T09:32:05;27.77;42.23
68128;SHT30;54931;52.098;21.006;2023-07-31T09:34:44;27.75;42.31
68128;SHT30;54931;52.098;21.006;2023-07-31T09:37:12;27.94;43.45
68128;SHT30;54931;52.098;21.006;2023-07-31T09:39:47;28.06;42.45
68128;SHT30;54931;52.098;21.006;2023-07-31T09:42:24;28.03;42.40
68128;SHT30;54931;52.098;21.006;2023-07-31T09:44:54;28.13;42.52
68128;SHT30;54931;52.098;21.006;2023-07-31T09:47:38;27.88;40.76
68128;SHT30;54931;52.098;21.006;2023-07-31T09:50:07;27.53;41.54
68128;SHT30;54931;52.098;21.006;2023-07-31T09:52:38;27.30;41.35
68128;SHT30;54931;52.098;21.006;2023-07-31T09:55:09;27.19;42.76
68128;SHT30;54931;52.098;21.006;2023-07-31T09:57:39;27.19;43.03
68128;SHT30;54931;52.098;21.006;2023-07-31T10:00:13;26.89;41.97
68128;SHT30;54931;52.098;21.006;2023-07-31T10:02:47;26.42;43.07
68128;SHT30;54931;52.098;21.006;2023-07-31T10:05:16;26.19;43.49
68128;SHT30;54931;52.098;21.006;2023-07-31T10:07:55;26.33;43.85
68128;SHT30;54931;52.098;21.006;2023-07-31T10:10:25;26.62;43.33
68128;SHT30;54931;52.098;21.006;2023-07-31T10:12:56;26.89;43.26
68128;SHT30;54931;52.098;21.006;2023-07-31T10:15:25;26.91;42.80
68128;SHT30;54931;52.098;21.006;2023-07-31T10:17:53;26.63;42.64
68128;SHT30;54931;52.098;21.006;2023-07-31T10:20:22;26.59;43.68
68128;SHT30;54931;52.098;21.006;2023-07-31T10:22:52;26.57;43.89
68128;SHT30;54931;52.098;21.006;2023-07-31T10:25:24;26.78;44.98
68128;SHT30;54931;52.098;21.006;2023-07-31T10:27:55;27.24;43.56
68128;SHT30;54931;52.098;21.006;2023-07-31T10:30:26;27.55;43.14
68128;SHT30;54931;52.098;21.006;2023-07-31T10:32:59;27.86;42.94
68128;SHT30;54931;52.098;21.006;2023-07-31T10:35:28;28.12;42.15
68128;SHT30;54931;52.098;21.006;2023-07-31T10:37:56;28.40;41.86
68128;SHT30;54931;52.098;21.006;2023-07-31T10:40:38;28.56;41.66
68128;SHT30;54931;52.098;21.006;2023-07-31T10:43:07;28.70;40.05
68128;SHT30;54931;52.098;21.006;2023-07-31T10:45:38;28.36;39.66
68128;SHT30;54931;52.098;21.006;2023-07-31T10:48:15;27.95;40.30
68128;SHT30;54931;52.098;21.006;2023-07-31T10:50:54;27.62;40.53
68128;SHT30;54931;52.098;21.006;2023-07-31T10:53:30;27.55;41.61
68128;SHT30;54931;52.098;21.006;2023-07-31T10:56:07;27.39;41.03
68128;SHT30;54931;52.098;21.006;2023-07-31T10:58:38;27.26;42.16
68128;SHT30;54931;52.098;21.006;2023-07-31T11:01:06;27.43;43.21
68128;SHT30;54931;52.098;21.006;2023-07-31T11:03:44;27.51;42.42
68128;SHT30;54931;52.098;21.006;2023-07-31T11:06:19;27.47;42.28
68128;SHT30;54931;52.098;21.006;2023-07-31T11:08:48;27.57;42.02
68128;SHT30;54931;52.098;21.006;2023-07-31T11:11:19;27.60;40.72
68128;SHT30;54931;52.098;21.006;2023-07-31T11:13:49;27.66;42.05
68128;SHT30;54931;52.098;21.006;2023-07-31T11:16:25;27.82;41.64
68128;SHT30;54931;52.098;21.006;2023-07-31T11:18:53;27.72;41.68
68128;SHT30;54931;52.098;21.006;2023-07-31T11:21:23;27.81;43.03
68128;SHT30;54931;52.098;21.006;2023-07-31T11:23:52;27.83;41.24
68128;SHT30;54931;52.098;21.006;2023-07-31T11:26:25;27.68;41.21
68128;SHT30;54931;52.098;21.006;2023-07-31T11:28:54;27.54;40.87
68128;SHT30;54931;52.098;21.006;2023-07-31T11:31:22;27.25;39.93
68128;SHT30;54931;52.098;21.006;2023-07-31T11:33:49;26.86;39.89
68128;SHT30;54931;52.098;21.006;2023-07-31T11:36:18;26.59;40.82
68128;SHT30;54931;52.098;21.006;2023-07-31T11:38:48;26.47;40.86
68128;SHT30;54931;52.098;21.006;2023-07-31T11:41:16;26.37;40.93
68128;SHT30;54931;52.098;21.006;2023-07-31T11:43:45;26.29;41.57
68128;SHT30;54931;52.098;21.006;2023-07-31T11:46:14;26.22;42.04
68128;SHT30;54931;52.098;21.006;2023-07-31T11:48:42;26.16;41.37
68128;SHT30;54931;52.098;21.006;2023-07-31T11:51:12;26.10;41.30
68128;SHT30;54931;52.098;21.006;2023-07-31T11:54:00;26.05;40.76
68128;SHT30;54931;52.098;21.006;2023-07-31T11:56:30;25.92;39.73
68128;SHT30;54931;52.098;21.006;2023-07-31T11:58:59;25.78;40.79
68128;SHT30;54931;52.098;21.006;2023-07-31T12:01:31;25.72;40.25
68128;SHT30;54931;52.098;21.006;2023-07-31T12:04:00;25.63;41.57
68128;SHT30;54931;52.098;21.006;2023-07-31T12:06:35;25.63;42.01
68128;SHT30;54931;52.098;21.006;2023-07-31T12:09:04;25.65;42.01
68128;SHT30;54931;52.098;21.006;2023-07-31T12:11:44;25.64;42.45
68128;SHT30;54931;52.098;21.006;2023-07-31T12:14:24;25.68;41.58
68128;SHT30;54931;52.098;21.006;2023-07-31T12:16:58;25.75;42.27
68128;SHT30;54931;52.098;21.006;2023-07-31T12:19:31;25.87;41.63
68128;SHT30;54931;52.098;21.006;2023-07-31T12:21:59;25.90;40.09
68128;SHT30;54931;52.098;21.006;2023-07-31T12:24:28;25.86;40.22
68128;SHT30;54931;52.098;21.006;2023-07-31T12:26:56;25.85;40.17
68128;SHT30;54931;52.098;21.006;2023-07-31T12:29:23;25.85;40.47
68128;SHT30;54931;52.098;21.006;2023-07-31T12:32:02;25.90;41.09
68128;SHT30;54931;52.098;21.006;2023-07-31T12:34:31;25.92;40.28
68128;SHT30;54931;52.098;21.006;2023-07-31T12:37:09;25.90;40.45
68128;SHT30;54931;52.098;21.006;2023-07-31T12:39:37;25.81;40.24
68128;SHT30;54931;52.098;21.006;2023-07-31T12:42:05;25.73;40.57
68128;SHT30;54931;52.098;21.006;2023-07-31T12:44:33;25.70;41.44
68128;SHT30;54931;52.098;21.006;2023-07-31T12:47:00;25.72;42.31
68128;SHT30;54931;52.098;21.006;2023-07-31T12:49:28;25.78;41.51
68128;SHT30;54931;52.098;21.006;2023-07-31T12:51:56;25.82;40.98
68128;SHT30;54931;52.098;21.006;2023-07-31T12:54:23;25.91;41.95
68128;SHT30;54931;52.098;21.006;2023-07-31T12:56:51;26.00;42.38
68128;SHT30;54931;52.098;21.006;2023-07-31T12:59:18;26.07;41.12
68128;SHT30;54931;52.098;21.006;2023-07-31T13:01:46;26.15;40.62
68128;SHT30;54931;52.098;21.006;2023-07-31T13:04:14;26.15;39.56
68128;SHT30;54931;52.098;21.006;2023-07-31T13:06:41;26.13;39.61
68128;SHT30;54931;52.098;21.006;2023-07-31T13:09:09;26.02;39.91
68128;SHT30;54931;52.098;21.006;2023-07-31T13:11:37;26.01;40.33
68128;SHT30;54931;52.098;21.006;2023-07-31T13:14:05;26.00;41.29
68128;SHT30;54931;52.098;21.006;2023-07-31T13:16:33;26.03;41.76
68128;SHT30;54931;52.098;21.006;2023-07-31T13:19:01;26.00;41.17
68128;SHT30;54931;52.098;21.006;2023-07-31T13:21:28;25.93;42.32
68128;SHT30;54931;52.098;21.006;2023-07-31T13:23:56;25.94;42.08
68128;SHT30;54931;52.098;21.006;2023-07-31T13:26:25;26.07;43.09
68128;SHT30;54931;52.098;21.006;2023-07-31T13:28:53;26.40;42.63
68128;SHT30;54931;52.098;21.006;2023-07-31T13:31:20;26.69;40.91
68128;SHT30;54931;52.098;21.006;2023-07-31T13:33:48;26.90;41.42
68128;SHT30;54931;52.098;21.006;2023-07-31T13:36:15;27.17;41.85
68128;SHT30;54931;52.098;21.006;2023-07-31T13:38:43;27.31;41.07
68128;SHT30;54931;52.098;21.006;2023-07-31T13:41:10;27.32;40.19
68128;SHT30;54931;52.098;21.006;2023-07-31T13:43:38;27.47;40.43
68128;SHT30;54931;52.098;21.006;2023-07-31T13:46:06;27.71;39.20
68128;SHT30;54931;52.098;21.006;2023-07-31T13:48:35;27.79;38.86
68128;SHT30;54931;52.098;21.006;2023-07-31T13:51:03;27.64;37.99
68128;SHT30;54931;52.098;21.006;2023-07-31T13:53:31;27.49;38.08
68128;SHT30;54931;52.098;21.006;2023-07-31T13:55:59;27.32;38.63
68128;SHT30;54931;52.098;21.006;2023-07-31T13:58:28;27.00;37.83
68128;SHT30;54931;52.098;21.006;2023-07-31T14:00:55;26.65;38.80
68128;SHT30;54931;52.098;21.006;2023-07-31T14:03:23;26.31;38.79
68128;SHT30;54931;52.098;21.006;2023-07-31T14:05:51;25.98;40.14
68128;SHT30;54931;52.098;21.006;2023-07-31T14:08:22;25.81;41.33
68128;SHT30;54931;52.098;21.006;2023-07-31T14:10:50;25.75;41.92
68128;SHT30;54931;52.098;21.006;2023-07-31T14:13:19;25.76;41.14
68128;SHT30;54931;52.098;21.006;2023-07-31T14:15:46;25.73;40.76
68128;SHT30;54931;52.098;21.006;2023-07-31T14:18:15;25.72;40.66
68128;SHT30;54931;52.098;21.006;2023-07-31T14:20:43;25.69;41.17
68128;SHT30;54931;52.098;21.006;2023-07-31T14:23:11;25.66;41.60
68128;SHT30;54931;52.098;21.006;2023-07-31T14:25:39;25.65;42.37
68128;SHT30;54931;52.098;21.006;2023-07-31T14:28:07;25.62;41.35
68128;SHT30;54931;52.098;21.006;2023-07-31T14:30:35;25.59;40.41
68128;SHT30;54931;52.098;21.006;2023-07-31T14:33:02;25.60;40.03
68128;SHT30;54931;52.098;21.006;2023-07-31T14:35:30;25.67;41.02
68128;SHT30;54931;52.098;21.006;2023-07-31T14:37:58;25.94;39.86
68128;SHT30;54931;52.098;21.006;2023-07-31T14:40:26;26.25;39.50
68128;SHT30;54931;52.098;21.006;2023-07-31T14:42:54;26.55;39.19
68128;SHT30;54931;52.098;21.006;2023-07-31T14:45:21;26.78;39.71
68128;SHT30;54931;52.098;21.006;2023-07-31T14:47:49;26.84;38.48
68128;SHT30;54931;52.098;21.006;2023-07-31T14:50:19;26.63;38.70
68128;SHT30;54931;52.098;21.006;2023-07-31T14:52:48;26.40;39.19
68128;SHT30;54931;52.098;21.006;2023-07-31T14:55:16;26.26;39.35
68128;SHT30;54931;52.098;21.006;2023-07-31T14:57:45;26.10;38.80
68128;SHT30;54931;52.098;21.006;2023-07-31T15:00:13;25.91;39.57
68128;SHT30;54931;52.098;21.006;2023-07-31T15:02:42;25.75;39.55
68128;SHT30;54931;52.098;21.006;2023-07-31T15:05:10;25.58;39.89
68128;SHT30;54931;52.098;21.006;2023-07-31T15:07:38;25.46;40.73
68128;SHT30;54931;52.098;21.006;2023-07-31T15:10:05;25.48;41.72
68128;SHT30;54931;52.098;21.006;2023-07-31T15:12:35;25.58;41.55
68128;SHT30;54931;52.098;21.006;2023-07-31T15:15:04;25.65;40.65
68128;SHT30;54931;52.098;21.006;2023-07-31T15:17:33;25.68;41.36
68128;SHT30;54931;52.098;21.006;2023-07-31T15:20:02;25.75;41.58
68128;SHT30;54931;52.098;21.006;2023-07-31T15:22:32;25.83;41.13
68128;SHT30;54931;52.098;21.006;2023-07-31T15:24:59;25.86;40.67
68128;SHT30;54931;52.098;21.006;2023-07-31T15:27:27;25.82;40.56
68128;SHT30;54931;52.098;21.006;2023-07-31T15:29:55;25.79;41.92